sensor_id;sensor_type;location;lat;lon;timestamp;pressure;altitude;pressure_sealevel;temperature;humidity
48644;BME280;34928;37.302;-121.984;2023-10-09T00:08:27;100276.0;;;29.35;34.33
48644;BME280;34928;37.302;-121.984;2023-10-09T00:18:33;100272.0;;;29.34;33.60
48644;BME280;34928;37.302;-121.984;2023-10-09T00:28:38;100275.0;;;29.42;33.78
48644;BME280;34928;37.302;-121.984;2023-10-09T00:38:43;100280.0;;;29.58;33.79
48644;BME280;34928;37.302;-121.984;2023-10-09T00:48:50;100279.0;;;29.66;34.11
48644;BME280;34928;37.302;-121.984;2023-10-09T00:58:59;100285.0;;;29.61;34.12
48644;BME280;34928;37.302;-121.984;2023-10-09T01:09:02;100293.0;;;29.76;33.50
48644;BME280;34928;37.302;-121.984;2023-10-09T01:19:08;100306.0;;;30.04;34.59
48644;BME280;34928;37.302;-121.984;2023-10-09T01:29:14;100302.0;;;29.90;34.09
48644;BME280;34928;37.302;-121.984;2023-10-09T01:39:17;100305.0;;;30.00;34.39
48644;BME280;34928;37.302;-121.984;2023-10-09T01:49:23;100322.0;;;30.00;33.91
48644;BME280;34928;37.302;-121.984;2023-10-09T01:59:27;100323.0;;;29.86;33.84
48644;BME280;34928;37.302;-121.984;2023-10-09T02:09:33;100341.0;;;29.87;33.64
48644;BME280;34928;37.302;-121.984;2023-10-09T02:19:39;100348.0;;;29.94;33.43
48644;BME280;34928;37.302;-121.984;2023-10-09T02:29:42;100360.0;;;30.02;33.10
48644;BME280;34928;37.302;-121.984;2023-10-09T02:39:47;100377.0;;;30.23;33.44
48644;BME280;34928;37.302;-121.984;2023-10-09T02:49:53;100384.0;;;30.04;32.92
48644;BME280;34928;37.302;-121.984;2023-10-09T02:59:58;100402.0;;;30.08;32.80
48644;BME280;34928;37.302;-121.984;2023-10-09T03:10:02;100408.0;;;30.05;33.06
48644;BME280;34928;37.302;-121.984;2023-10-09T03:20:09;100424.0;;;30.09;32.70
48644;BME280;34928;37.302;-121.984;2023-10-09T03:30:15;100415.0;;;30.09;33.08
48644;BME280;34928;37.302;-121.984;2023-10-09T03:40:23;100422.0;;;30.10;32.61
48644;BME280;34928;37.302;-121.984;2023-10-09T03:50:29;100434.0;;;29.98;32.87
48644;BME280;34928;37.302;-121.984;2023-10-09T04:00:33;100443.0;;;30.02;32.86
48644;BME280;34928;37.302;-121.984;2023-10-09T04:10:38;100461.0;;;29.09;32.02
48644;BME280;34928;37.302;-121.984;2023-10-09T04:20:43;100479.0;;;26.58;37.12
48644;BME280;34928;37.302;-121.984;2023-10-09T04:30:47;100494.0;;;24.79;40.01
48644;BME280;34928;37.302;-121.984;2023-10-09T04:40:53;100501.0;;;25.18;39.97
48644;BME280;34928;37.302;-121.984;2023-10-09T04:50:57;100506.0;;;24.34;41.91
48644;BME280;34928;37.302;-121.984;2023-10-09T05:01:03;100526.0;;;24.39;41.87
48644;BME280;34928;37.302;-121.984;2023-10-09T05:11:08;100538.0;;;24.13;42.73
48644;BME280;34928;37.302;-121.984;2023-10-09T05:21:13;100557.0;;;23.52;43.34
48644;BME280;34928;37.302;-121.984;2023-10-09T05:31:18;100556.0;;;25.21;39.91
48644;BME280;34928;37.302;-121.984;2023-10-09T05:41:23;100567.0;;;26.52;37.54
48644;BME280;34928;37.302;-121.984;2023-10-09T05:51:28;100564.0;;;27.04;35.90
48644;BME280;34928;37.302;-121.984;2023-10-09T06:01:34;100556.0;;;27.00;35.26
48644;BME280;34928;37.302;-121.984;2023-10-09T06:11:37;100544.0;;;27.43;35.11
48644;BME280;34928;37.302;-121.984;2023-10-09T06:21:42;100554.0;;;27.64;34.71
48644;BME280;34928;37.302;-121.984;2023-10-09T06:31:47;100539.0;;;27.41;34.55
48644;BME280;34928;37.302;-121.984;2023-10-09T06:41:53;100536.0;;;27.41;34.39
48644;BME280;34928;37.302;-121.984;2023-10-09T06:51:58;100528.0;;;27.46;34.24
48644;BME280;34928;37.302;-121.984;2023-10-09T07:02:03;100554.0;;;27.56;34.07
48644;BME280;34928;37.302;-121.984;2023-10-09T07:12:08;100552.0;;;27.81;33.83
48644;BME280;34928;37.302;-121.984;2023-10-09T07:22:13;100562.0;;;27.59;33.79
48644;BME280;34928;37.302;-121.984;2023-10-09T07:32:18;100579.0;;;27.61;33.36
48644;BME280;34928;37.302;-121.984;2023-10-09T07:42:23;100587.0;;;27.67;33.24
48644;BME280;34928;37.302;-121.984;2023-10-09T07:52:27;100589.0;;;27.43;32.99
48644;BME280;34928;37.302;-121.984;2023-10-09T08:02:33;100592.0;;;27.58;33.69
48644;BME280;34928;37.302;-121.984;2023-10-09T08:12:38;100590.0;;;27.39;33.51
48644;BME280;34928;37.302;-121.984;2023-10-09T08:22:43;100583.0;;;27.39;33.18
48644;BME280;34928;37.302;-121.984;2023-10-09T08:32:50;100579.0;;;27.29;33.01
48644;BME280;34928;37.302;-121.984;2023-10-09T08:42:54;100579.0;;;27.35;33.57
48644;BME280;34928;37.302;-121.984;2023-10-09T08:52:58;100599.0;;;27.41;33.25
48644;BME280;34928;37.302;-121.984;2023-10-09T09:03:03;100595.0;;;27.32;33.02
48644;BME280;34928;37.302;-121.984;2023-10-09T09:13:15;100598.0;;;27.37;33.13
48644;BME280;34928;37.302;-121.984;2023-10-09T09:23:22;100590.0;;;27.32;33.29
48644;BME280;34928;37.302;-121.984;2023-10-09T09:33:28;100578.0;;;27.53;33.32
48644;BME280;34928;37.302;-121.984;2023-10-09T09:43:34;100572.0;;;27.24;33.20
48644;BME280;34928;37.302;-121.984;2023-10-09T09:53:42;100566.0;;;27.14;33.17
48644;BME280;34928;37.302;-121.984;2023-10-09T10:03:51;100563.0;;;26.97;33.13
48644;BME280;34928;37.302;-121.984;2023-10-09T10:13:57;100541.0;;;27.11;33.39
48644;BME280;34928;37.302;-121.984;2023-10-09T10:24:03;100538.0;;;27.35;32.72
48644;BME280;34928;37.302;-121.984;2023-10-09T10:34:08;100512.0;;;27.11;32.90
48644;BME280;34928;37.302;-121.984;2023-10-09T10:44:12;100498.0;;;27.13;32.60
48644;BME280;34928;37.302;-121.984;2023-10-09T10:54:23;100503.0;;;27.50;32.51
48644;BME280;34928;37.302;-121.984;2023-10-09T11:04:29;100500.0;;;27.10;32.69
48644;BME280;34928;37.302;-121.984;2023-10-09T11:14:32;100516.0;;;27.40;32.51
48644;BME280;34928;37.302;-121.984;2023-10-09T11:24:37;100516.0;;;27.01;32.19
48644;BME280;34928;37.302;-121.984;2023-10-09T11:34:43;100538.0;;;26.95;31.90
48644;BME280;34928;37.302;-121.984;2023-10-09T11:44:47;100549.0;;;27.24;32.17
48644;BME280;34928;37.302;-121.984;2023-10-09T11:54:52;100536.0;;;26.96;32.20
48644;BME280;34928;37.302;-121.984;2023-10-09T12:04:58;100534.0;;;27.09;32.09
48644;BME280;34928;37.302;-121.984;2023-10-09T12:15:02;100527.0;;;27.34;31.99
48644;BME280;34928;37.302;-121.984;2023-10-09T12:25:08;100532.0;;;26.83;31.88
48644;BME280;34928;37.302;-121.984;2023-10-09T12:35:12;100520.0;;;27.13;31.91
48644;BME280;34928;37.302;-121.984;2023-10-09T12:45:17;100506.0;;;27.24;31.88
48644;BME280;34928;37.302;-121.984;2023-10-09T12:55:23;100493.0;;;27.23;31.89
48644;BME280;34928;37.302;-121.984;2023-10-09T13:05:29;100479.0;;;27.03;31.04
48644;BME280;34928;37.302;-121.984;2023-10-09T13:15:33;100457.0;;;27.00;31.21
48644;BME280;34928;37.302;-121.984;2023-10-09T13:25:37;100463.0;;;27.12;30.83
48644;BME280;34928;37.302;-121.984;2023-10-09T13:35:43;100464.0;;;27.10;30.80
48644;BME280;34928;37.302;-121.984;2023-10-09T13:45:47;100458.0;;;27.23;30.75
48644;BME280;34928;37.302;-121.984;2023-10-09T13:55:52;100448.0;;;26.55;31.15
48644;BME280;34928;37.302;-121.984;2023-10-09T14:05:58;100472.0;;;27.04;31.26
48644;BME280;34928;37.302;-121.984;2023-10-09T14:16:04;100482.0;;;25.62;33.13
48644;BME280;34928;37.302;-121.984;2023-10-09T14:26:07;100504.0;;;25.30;33.59
48644;BME280;34928;37.302;-121.984;2023-10-09T14:36:13;100558.0;;;25.73;33.20
48644;BME280;34928;37.302;-121.984;2023-10-09T14:46:17;100587.0;;;26.03;33.61
48644;BME280;34928;37.302;-121.984;2023-10-09T14:56:23;100584.0;;;25.83;34.12
48644;BME280;34928;37.302;-121.984;2023-10-09T15:06:28;100604.0;;;25.74;33.75
48644;BME280;34928;37.302;-121.984;2023-10-09T15:16:33;100613.0;;;26.40;33.40
48644;BME280;34928;37.302;-121.984;2023-10-09T15:26:38;100627.0;;;25.52;33.46
48644;BME280;34928;37.302;-121.984;2023-10-09T15:36:43;100629.0;;;26.06;33.17
48644;BME280;34928;37.302;-121.984;2023-10-09T15:46:47;100629.0;;;25.73;33.19
48644;BME280;34928;37.302;-121.984;2023-10-09T15:56:53;100653.0;;;25.80;32.53
48644;BME280;34928;37.302;-121.984;2023-10-09T16:06:58;100659.0;;;26.00;32.07
48644;BME280;34928;37.302;-121.984;2023-10-09T16:17:03;100658.0;;;25.74;32.40
48644;BME280;34928;37.302;-121.984;2023-10-09T16:27:09;100646.0;;;25.99;32.22
48644;BME280;34928;37.302;-121.984;2023-10-09T16:37:12;100638.0;;;26.03;32.25
48644;BME280;34928;37.302;-121.984;2023-10-09T16:47:17;100631.0;;;26.26;31.71
48644;BME280;34928;37.302;-121.984;2023-10-09T16:57:22;100645.0;;;25.66;32.25
48644;BME280;34928;37.302;-121.984;2023-10-09T17:07:28;100641.0;;;26.35;31.73
48644;BME280;34928;37.302;-121.984;2023-10-09T17:17:33;100628.0;;;25.77;32.34
48644;BME280;34928;37.302;-121.984;2023-10-09T17:27:39;100611.0;;;25.86;32.51
48644;BME280;34928;37.302;-121.984;2023-10-09T17:37:43;100605.0;;;25.83;32.37
48644;BME280;34928;37.302;-121.984;2023-10-09T17:47:47;100623.0;;;26.60;31.32
48644;BME280;34928;37.302;-121.984;2023-10-09T17:57:53;100637.0;;;26.44;31.48
48644;BME280;34928;37.302;-121.984;2023-10-09T18:07:58;100632.0;;;26.24;31.62
48644;BME280;34928;37.302;-121.984;2023-10-09T18:18:02;100632.0;;;26.57;31.28
48644;BME280;34928;37.302;-121.984;2023-10-09T18:28:08;100650.0;;;26.72;31.10
48644;BME280;34928;37.302;-121.984;2023-10-09T18:38:12;100635.0;;;26.67;31.25
48644;BME280;34928;37.302;-121.984;2023-10-09T18:48:18;100641.0;;;26.54;31.55
48644;BME280;34928;37.302;-121.984;2023-10-09T18:58:23;100616.0;;;26.25;31.92
48644;BME280;34928;37.302;-121.984;2023-10-09T19:08:27;100631.0;;;26.78;30.91
48644;BME280;34928;37.302;-121.984;2023-10-09T19:18:33;100607.0;;;27.00;30.96
48644;BME280;34928;37.302;-121.984;2023-10-09T19:28:38;100587.0;;;27.17;30.70
48644;BME280;34928;37.302;-121.984;2023-10-09T19:38:44;100581.0;;;27.22;30.61
48644;BME280;34928;37.302;-121.984;2023-10-09T19:48:48;100556.0;;;27.33;30.36
48644;BME280;34928;37.302;-121.984;2023-10-09T19:58:53;100559.0;;;27.37;30.28
48644;BME280;34928;37.302;-121.984;2023-10-09T20:08:58;100512.0;;;27.21;30.12
48644;BME280;34928;37.302;-121.984;2023-10-09T20:19:03;100539.0;;;27.44;30.28
48644;BME280;34928;37.302;-121.984;2023-10-09T20:29:08;100530.0;;;27.54;30.21
48644;BME280;34928;37.302;-121.984;2023-10-09T20:39:12;100493.0;;;27.38;30.19
48644;BME280;34928;37.302;-121.984;2023-10-09T20:49:17;100475.0;;;27.37;30.23
48644;BME280;34928;37.302;-121.984;2023-10-09T20:59:22;100487.0;;;27.47;30.16
48644;BME280;34928;37.302;-121.984;2023-10-09T21:09:27;100454.0;;;27.51;30.13
48644;BME280;34928;37.302;-121.984;2023-10-09T21:19:32;100432.0;;;27.65;30.02
48644;BME280;34928;37.302;-121.984;2023-10-09T21:29:38;100441.0;;;27.92;30.13
48644;BME280;34928;37.302;-121.984;2023-10-09T21:39:42;100433.0;;;27.68;30.15
48644;BME280;34928;37.302;-121.984;2023-10-09T21:49:47;100415.0;;;27.77;30.18
48644;BME280;34928;37.302;-121.984;2023-10-09T21:59:53;100402.0;;;27.77;30.35
48644;BME280;34928;37.302;-121.984;2023-10-09T22:09:57;100383.0;;;27.92;30.23
48644;BME280;34928;37.302;-121.984;2023-10-09T22:20:03;100377.0;;;27.99;30.25
48644;BME280;34928;37.302;-121.984;2023-10-09T22:30:08;100379.0;;;28.06;30.23
48644;BME280;34928;37.302;-121.984;2023-10-09T22:40:12;100384.0;;;28.11;30.26
48644;BME280;34928;37.302;-121.984;2023-10-09T22:50:18;100376.0;;;27.94;30.32
48644;BME280;34928;37.302;-121.984;2023-10-09T23:00:22;100355.0;;;28.23;30.29
48644;BME280;34928;37.302;-121.984;2023-10-09T23:10:27;100334.0;;;28.28;30.32
48644;BME280;34928;37.302;-121.984;2023-10-09T23:20:32;100343.0;;;28.35;30.27
48644;BME280;34928;37.302;-121.984;2023-10-09T23:30:37;100339.0;;;28.23;30.24
48644;BME280;34928;37.302;-121.984;2023-10-09T23:40:43;100330.0;;;28.51;30.16
48644;BME280;34928;37.302;-121.984;2023-10-09T23:50:47;100325.0;;;28.32;30.26
